Terminal Aerodrome Forecast
Issued by NWS Cleveland, OH

Home | Current Version | Previous Version | Graphics & Text | Print | Product List | Glossary On
Versions: 1 2 3 4 5 6 7 8 9 10 11 12 13 14 15 16 17 18 19 20 21 22 23 24 25 26 27 28 29 30 31 32 33 34 35 36 37 38
000
FTUS41 KCLE 031700 CCA
TAFCLE
TAF COR
KCLE 031738Z 0318/0424 21010G16KT P6SM SCT060
     FM031900 29010KT P6SM SCT060
     FM032100 23010G16KT P6SM SCT060
     FM032300 19006KT P6SM SCT250
     FM040800 18008KT P6SM SCT100 BKN250
     FM041400 23012G18KT P6SM SCT045 BKN120
     FM041900 23014G20KT P6SM VCSH BKN045=

USA.gov is the U.S. government's official web portal to all federal, state and local government web resources and services.